sensor_id;sensor_type;location;lat;lon;timestamp;temperature;humidity
71254;HTU21D;59019;47.638;18.966;2022-09-03T00:02:52;12.14;92.24
71254;HTU21D;59019;47.638;18.966;2022-09-03T00:05:22;12.10;92.37
71254;HTU21D;59019;47.638;18.966;2022-09-03T00:11:15;12.01;92.65
71254;HTU21D;59019;47.638;18.966;2022-09-03T00:13:58;11.99;93.11
71254;HTU21D;59019;47.638;18.966;2022-09-03T00:16:29;11.97;93.24
71254;HTU21D;59019;47.638;18.966;2022-09-03T00:19:01;11.97;93.72
71254;HTU21D;59019;47.638;18.966;2022-09-03T00:21:40;11.97;94.19
71254;HTU21D;59019;47.638;18.966;2022-09-03T00:24:11;11.89;94.34
71254;HTU21D;59019;47.638;18.966;2022-09-03T00:26:39;11.92;94.43
71254;HTU21D;59019;47.638;18.966;2022-09-03T00:29:16;11.92;94.22
71254;HTU21D;59019;47.638;18.966;2022-09-03T00:31:47;11.92;93.93
71254;HTU21D;59019;47.638;18.966;2022-09-03T00:34:25;11.91;93.45
71254;HTU21D;59019;47.638;18.966;2022-09-03T00:36:53;11.90;93.27
71254;HTU21D;59019;47.638;18.966;2022-09-03T00:39:21;11.87;93.14
71254;HTU21D;59019;47.638;18.966;2022-09-03T00:42:42;11.83;93.05
71254;HTU21D;59019;47.638;18.966;2022-09-03T00:44:43;11.81;92.97
71254;HTU21D;59019;47.638;18.966;2022-09-03T00:50:40;11.79;94.02
71254;HTU21D;59019;47.638;18.966;2022-09-03T01:00:33;11.69;94.68
71254;HTU21D;59019;47.638;18.966;2022-09-03T01:13:34;11.75;93.75
71254;HTU21D;59019;47.638;18.966;2022-09-03T01:22:27;11.60;93.70
71254;HTU21D;59019;47.638;18.966;2022-09-03T01:28:21;11.56;93.33
71254;HTU21D;59019;47.638;18.966;2022-09-03T01:33:38;11.48;93.48
71254;HTU21D;59019;47.638;18.966;2022-09-03T01:47:32;11.47;94.16
71254;HTU21D;59019;47.638;18.966;2022-09-03T01:53:04;11.41;93.97
71254;HTU21D;59019;47.638;18.966;2022-09-03T01:58:13;11.47;93.38
71254;HTU21D;59019;47.638;18.966;2022-09-03T02:00:42;11.49;93.10
71254;HTU21D;59019;47.638;18.966;2022-09-03T02:03:09;11.45;92.66
71254;HTU21D;59019;47.638;18.966;2022-09-03T02:05:37;11.42;92.69
71254;HTU21D;59019;47.638;18.966;2022-09-03T02:08:06;11.36;92.53
71254;HTU21D;59019;47.638;18.966;2022-09-03T02:10:49;11.29;92.54
71254;HTU21D;59019;47.638;18.966;2022-09-03T02:13:23;11.27;92.74
71254;HTU21D;59019;47.638;18.966;2022-09-03T02:15:51;11.24;92.81
71254;HTU21D;59019;47.638;18.966;2022-09-03T02:18:40;11.23;92.98
71254;HTU21D;59019;47.638;18.966;2022-09-03T02:21:07;11.23;93.12
71254;HTU21D;59019;47.638;18.966;2022-09-03T02:23:38;11.18;93.04
71254;HTU21D;59019;47.638;18.966;2022-09-03T02:26:05;11.12;92.93
71254;HTU21D;59019;47.638;18.966;2022-09-03T02:28:32;11.13;92.93
71254;HTU21D;59019;47.638;18.966;2022-09-03T02:30:58;11.12;93.25
71254;HTU21D;59019;47.638;18.966;2022-09-03T02:33:24;11.10;93.43
71254;HTU21D;59019;47.638;18.966;2022-09-03T02:35:50;11.03;93.81
71254;HTU21D;59019;47.638;18.966;2022-09-03T02:38:22;11.04;94.23
71254;HTU21D;59019;47.638;18.966;2022-09-03T02:40:52;11.02;94.98
71254;HTU21D;59019;47.638;18.966;2022-09-03T02:43:29;10.99;95.64
71254;HTU21D;59019;47.638;18.966;2022-09-03T02:46:01;11.08;96.10
71254;HTU21D;59019;47.638;18.966;2022-09-03T02:48:27;11.08;95.79
71254;HTU21D;59019;47.638;18.966;2022-09-03T02:50:53;11.11;95.63
71254;HTU21D;59019;47.638;18.966;2022-09-03T02:53:19;11.08;95.59
71254;HTU21D;59019;47.638;18.966;2022-09-03T02:55:45;11.08;95.88
71254;HTU21D;59019;47.638;18.966;2022-09-03T02:58:11;11.07;95.81
71254;HTU21D;59019;47.638;18.966;2022-09-03T03:00:37;11.00;95.65
71254;HTU21D;59019;47.638;18.966;2022-09-03T03:03:03;11.00;96.07
71254;HTU21D;59019;47.638;18.966;2022-09-03T03:08:09;11.08;95.25
71254;HTU21D;59019;47.638;18.966;2022-09-03T03:10:36;11.08;94.82
71254;HTU21D;59019;47.638;18.966;2022-09-03T03:13:02;11.10;94.31
71254;HTU21D;59019;47.638;18.966;2022-09-03T03:15:28;11.07;94.33
71254;HTU21D;59019;47.638;18.966;2022-09-03T03:17:56;11.03;93.91
71254;HTU21D;59019;47.638;18.966;2022-09-03T03:20:22;11.01;94.07
71254;HTU21D;59019;47.638;18.966;2022-09-03T03:22:48;11.02;94.04
71254;HTU21D;59019;47.638;18.966;2022-09-03T03:25:13;10.99;93.79
71254;HTU21D;59019;47.638;18.966;2022-09-03T03:27:39;10.92;93.74
71254;HTU21D;59019;47.638;18.966;2022-09-03T03:30:07;10.88;93.78
71254;HTU21D;59019;47.638;18.966;2022-09-03T03:32:37;10.81;93.91
71254;HTU21D;59019;47.638;18.966;2022-09-03T03:35:03;10.84;94.04
71254;HTU21D;59019;47.638;18.966;2022-09-03T03:37:29;10.84;94.33
71254;HTU21D;59019;47.638;18.966;2022-09-03T03:39:55;10.80;94.42
71254;HTU21D;59019;47.638;18.966;2022-09-03T03:42:20;10.73;94.48
71254;HTU21D;59019;47.638;18.966;2022-09-03T03:44:46;10.75;95.10
71254;HTU21D;59019;47.638;18.966;2022-09-03T03:47:11;10.71;95.06
71254;HTU21D;59019;47.638;18.966;2022-09-03T03:49:37;10.70;94.95
71254;HTU21D;59019;47.638;18.966;2022-09-03T03:52:03;10.69;95.10
71254;HTU21D;59019;47.638;18.966;2022-09-03T03:54:29;10.68;95.63
71254;HTU21D;59019;47.638;18.966;2022-09-03T03:56:55;10.68;95.75
71254;HTU21D;59019;47.638;18.966;2022-09-03T03:59:21;10.71;96.21
71254;HTU21D;59019;47.638;18.966;2022-09-03T04:01:46;10.72;96.64
71254;HTU21D;59019;47.638;18.966;2022-09-03T04:04:15;10.77;96.58
71254;HTU21D;59019;47.638;18.966;2022-09-03T04:06:40;10.83;96.54
71254;HTU21D;59019;47.638;18.966;2022-09-03T04:09:06;10.81;96.77
71254;HTU21D;59019;47.638;18.966;2022-09-03T04:11:31;10.80;96.81
71254;HTU21D;59019;47.638;18.966;2022-09-03T04:13:57;10.82;96.52
71254;HTU21D;59019;47.638;18.966;2022-09-03T04:16:25;10.88;96.67
71254;HTU21D;59019;47.638;18.966;2022-09-03T04:18:52;10.98;96.30
71254;HTU21D;59019;47.638;18.966;2022-09-03T04:21:20;11.08;96.04
71254;HTU21D;59019;47.638;18.966;2022-09-03T04:23:48;11.17;95.84
71254;HTU21D;59019;47.638;18.966;2022-09-03T04:26:19;11.28;95.42
71254;HTU21D;59019;47.638;18.966;2022-09-03T04:28:45;11.34;95.47
71254;HTU21D;59019;47.638;18.966;2022-09-03T04:31:12;11.40;94.99
71254;HTU21D;59019;47.638;18.966;2022-09-03T04:33:39;11.43;94.85
71254;HTU21D;59019;47.638;18.966;2022-09-03T04:36:11;11.48;94.28
71254;HTU21D;59019;47.638;18.966;2022-09-03T04:38:39;11.52;93.17
71254;HTU21D;59019;47.638;18.966;2022-09-03T04:41:06;11.56;92.93
71254;HTU21D;59019;47.638;18.966;2022-09-03T04:43:32;11.58;92.98
71254;HTU21D;59019;47.638;18.966;2022-09-03T04:45:59;11.68;93.11
71254;HTU21D;59019;47.638;18.966;2022-09-03T04:48:26;11.81;93.14
71254;HTU21D;59019;47.638;18.966;2022-09-03T04:50:52;11.90;92.79
71254;HTU21D;59019;47.638;18.966;2022-09-03T04:53:19;11.99;92.09
71254;HTU21D;59019;47.638;18.966;2022-09-03T04:55:45;11.97;91.34
71254;HTU21D;59019;47.638;18.966;2022-09-03T04:58:10;12.01;91.03
71254;HTU21D;59019;47.638;18.966;2022-09-03T05:00:36;12.01;91.48
71254;HTU21D;59019;47.638;18.966;2022-09-03T05:03:02;12.10;91.96
71254;HTU21D;59019;47.638;18.966;2022-09-03T05:05:30;12.17;92.43
71254;HTU21D;59019;47.638;18.966;2022-09-03T05:07:59;12.29;92.59
71254;HTU21D;59019;47.638;18.966;2022-09-03T05:10:28;12.38;92.89
71254;HTU21D;59019;47.638;18.966;2022-09-03T05:13:04;12.49;92.91
71254;HTU21D;59019;47.638;18.966;2022-09-03T05:15:31;12.61;92.60
71254;HTU21D;59019;47.638;18.966;2022-09-03T05:18:01;12.73;92.42
71254;HTU21D;59019;47.638;18.966;2022-09-03T05:20:28;12.84;92.38
71254;HTU21D;59019;47.638;18.966;2022-09-03T05:22:55;13.03;91.99
71254;HTU21D;59019;47.638;18.966;2022-09-03T05:25:22;13.29;92.00
71254;HTU21D;59019;47.638;18.966;2022-09-03T05:27:48;13.54;91.47
71254;HTU21D;59019;47.638;18.966;2022-09-03T05:30:14;13.82;90.88
71254;HTU21D;59019;47.638;18.966;2022-09-03T05:32:39;14.11;91.37
71254;HTU21D;59019;47.638;18.966;2022-09-03T05:35:07;14.29;91.30
71254;HTU21D;59019;47.638;18.966;2022-09-03T05:37:34;14.43;90.71
71254;HTU21D;59019;47.638;18.966;2022-09-03T05:39:59;14.55;90.87
71254;HTU21D;59019;47.638;18.966;2022-09-03T05:42:25;14.65;90.95
71254;HTU21D;59019;47.638;18.966;2022-09-03T05:44:52;14.73;90.87
71254;HTU21D;59019;47.638;18.966;2022-09-03T05:47:19;14.84;90.99
71254;HTU21D;59019;47.638;18.966;2022-09-03T05:49:44;14.93;90.85
71254;HTU21D;59019;47.638;18.966;2022-09-03T05:52:10;15.04;91.05
71254;HTU21D;59019;47.638;18.966;2022-09-03T05:54:35;15.21;90.80
71254;HTU21D;59019;47.638;18.966;2022-09-03T05:57:01;15.37;90.34
71254;HTU21D;59019;47.638;18.966;2022-09-03T05:59:27;15.65;90.22
71254;HTU21D;59019;47.638;18.966;2022-09-03T06:01:52;16.05;90.03
71254;HTU21D;59019;47.638;18.966;2022-09-03T06:04:18;16.45;88.44
71254;HTU21D;59019;47.638;18.966;2022-09-03T06:06:45;16.92;88.25
71254;HTU21D;59019;47.638;18.966;2022-09-03T06:09:13;17.45;87.60
71254;HTU21D;59019;47.638;18.966;2022-09-03T06:11:40;17.92;85.88
71254;HTU21D;59019;47.638;18.966;2022-09-03T06:14:10;18.34;84.58
71254;HTU21D;59019;47.638;18.966;2022-09-03T06:16:38;18.79;83.07
71254;HTU21D;59019;47.638;18.966;2022-09-03T06:19:05;19.17;80.96
71254;HTU21D;59019;47.638;18.966;2022-09-03T06:21:35;19.52;79.24
71254;HTU21D;59019;47.638;18.966;2022-09-03T06:24:01;19.83;78.40
71254;HTU21D;59019;47.638;18.966;2022-09-03T06:26:27;20.11;74.17
71254;HTU21D;59019;47.638;18.966;2022-09-03T06:28:53;20.40;73.06
71254;HTU21D;59019;47.638;18.966;2022-09-03T06:31:21;20.44;71.47
71254;HTU21D;59019;47.638;18.966;2022-09-03T06:33:47;20.62;72.61
71254;HTU21D;59019;47.638;18.966;2022-09-03T06:36:15;20.88;71.62
71254;HTU21D;59019;47.638;18.966;2022-09-03T06:38:42;21.08;69.02
71254;HTU21D;59019;47.638;18.966;2022-09-03T06:41:19;21.21;68.14
71254;HTU21D;59019;47.638;18.966;2022-09-03T06:43:54;21.36;68.35
71254;HTU21D;59019;47.638;18.966;2022-09-03T06:46:22;21.61;67.43
71254;HTU21D;59019;47.638;18.966;2022-09-03T06:48:48;21.63;65.69
71254;HTU21D;59019;47.638;18.966;2022-09-03T06:51:20;21.88;63.23
71254;HTU21D;59019;47.638;18.966;2022-09-03T06:53:48;21.88;64.44
71254;HTU21D;59019;47.638;18.966;2022-09-03T06:56:16;22.02;63.65
71254;HTU21D;59019;47.638;18.966;2022-09-03T06:58:45;22.24;63.69
71254;HTU21D;59019;47.638;18.966;2022-09-03T07:01:16;22.49;62.65
71254;HTU21D;59019;47.638;18.966;2022-09-03T07:03:44;22.58;61.91
71254;HTU21D;59019;47.638;18.966;2022-09-03T07:06:15;22.71;61.94
71254;HTU21D;59019;47.638;18.966;2022-09-03T07:08:41;22.85;61.82
71254;HTU21D;59019;47.638;18.966;2022-09-03T07:11:10;23.00;62.07
71254;HTU21D;59019;47.638;18.966;2022-09-03T07:13:37;23.23;61.73
71254;HTU21D;59019;47.638;18.966;2022-09-03T07:16:07;23.45;61.21
71254;HTU21D;59019;47.638;18.966;2022-09-03T07:18:33;23.37;60.71
71254;HTU21D;59019;47.638;18.966;2022-09-03T07:21:04;23.72;59.90
71254;HTU21D;59019;47.638;18.966;2022-09-03T07:23:31;23.96;59.18
71254;HTU21D;59019;47.638;18.966;2022-09-03T07:26:00;24.16;58.54
71254;HTU21D;59019;47.638;18.966;2022-09-03T07:28:26;24.16;58.48
71254;HTU21D;59019;47.638;18.966;2022-09-03T07:30:53;24.19;58.74
71254;HTU21D;59019;47.638;18.966;2022-09-03T07:33:19;24.51;57.56
71254;HTU21D;59019;47.638;18.966;2022-09-03T07:35:46;24.82;57.22
71254;HTU21D;59019;47.638;18.966;2022-09-03T07:38:16;25.01;54.81
71254;HTU21D;59019;47.638;18.966;2022-09-03T07:40:43;25.02;55.14
71254;HTU21D;59019;47.638;18.966;2022-09-03T07:43:09;25.13;55.28
71254;HTU21D;59019;47.638;18.966;2022-09-03T07:45:35;25.25;55.20
71254;HTU21D;59019;47.638;18.966;2022-09-03T07:48:01;25.49;54.10
71254;HTU21D;59019;47.638;18.966;2022-09-03T07:50:28;25.78;53.27
71254;HTU21D;59019;47.638;18.966;2022-09-03T07:52:57;25.79;53.75
71254;HTU21D;59019;47.638;18.966;2022-09-03T07:55:26;25.96;53.74
71254;HTU21D;59019;47.638;18.966;2022-09-03T07:57:56;26.10;52.51
71254;HTU21D;59019;47.638;18.966;2022-09-03T08:00:22;26.11;51.59
71254;HTU21D;59019;47.638;18.966;2022-09-03T08:02:47;25.63;52.63
71254;HTU21D;59019;47.638;18.966;2022-09-03T08:05:13;25.93;53.30
71254;HTU21D;59019;47.638;18.966;2022-09-03T08:07:38;26.35;52.47
71254;HTU21D;59019;47.638;18.966;2022-09-03T08:10:04;26.57;51.22
71254;HTU21D;59019;47.638;18.966;2022-09-03T08:12:30;26.54;51.03
71254;HTU21D;59019;47.638;18.966;2022-09-03T08:14:57;26.55;50.30
71254;HTU21D;59019;47.638;18.966;2022-09-03T08:17:23;26.87;50.20
71254;HTU21D;59019;47.638;18.966;2022-09-03T08:19:48;26.99;50.74
71254;HTU21D;59019;47.638;18.966;2022-09-03T08:22:14;27.17;50.85
71254;HTU21D;59019;47.638;18.966;2022-09-03T08:24:39;27.39;49.25
71254;HTU21D;59019;47.638;18.966;2022-09-03T08:27:06;27.53;48.45
71254;HTU21D;59019;47.638;18.966;2022-09-03T08:29:31;27.57;47.94
71254;HTU21D;59019;47.638;18.966;2022-09-03T08:31:57;27.55;48.76
71254;HTU21D;59019;47.638;18.966;2022-09-03T08:34:22;27.61;48.04
71254;HTU21D;59019;47.638;18.966;2022-09-03T08:36:48;27.69;46.70
71254;HTU21D;59019;47.638;18.966;2022-09-03T08:39:14;27.78;47.25
71254;HTU21D;59019;47.638;18.966;2022-09-03T08:44:35;28.06;47.54
71254;HTU21D;59019;47.638;18.966;2022-09-03T08:47:31;28.14;47.53
71254;HTU21D;59019;47.638;18.966;2022-09-03T08:50:09;28.21;47.45
71254;HTU21D;59019;47.638;18.966;2022-09-03T08:52:45;28.11;47.73
71254;HTU21D;59019;47.638;18.966;2022-09-03T08:58:02;28.29;46.59
71254;HTU21D;59019;47.638;18.966;2022-09-03T09:05:58;28.12;46.21
71254;HTU21D;59019;47.638;18.966;2022-09-03T09:08:47;28.21;45.70
71254;HTU21D;59019;47.638;18.966;2022-09-03T09:14:10;28.55;45.70
71254;HTU21D;59019;47.638;18.966;2022-09-03T09:25:03;28.50;45.10
71254;HTU21D;59019;47.638;18.966;2022-09-03T09:27:31;28.45;44.82
71254;HTU21D;59019;47.638;18.966;2022-09-03T09:29:58;28.82;44.67
71254;HTU21D;59019;47.638;18.966;2022-09-03T09:32:26;29.12;44.32
71254;HTU21D;59019;47.638;18.966;2022-09-03T09:34:52;29.35;43.75
71254;HTU21D;59019;47.638;18.966;2022-09-03T09:37:19;29.15;43.77
71254;HTU21D;59019;47.638;18.966;2022-09-03T09:39:57;29.43;43.48
71254;HTU21D;59019;47.638;18.966;2022-09-03T09:42:23;29.50;43.26
71254;HTU21D;59019;47.638;18.966;2022-09-03T09:44:49;28.91;43.80
71254;HTU21D;59019;47.638;18.966;2022-09-03T09:47:32;28.94;43.58
71254;HTU21D;59019;47.638;18.966;2022-09-03T09:50:02;28.91;43.69
71254;HTU21D;59019;47.638;18.966;2022-09-03T09:52:29;28.83;43.72
71254;HTU21D;59019;47.638;18.966;2022-09-03T09:55:17;28.95;44.04
71254;HTU21D;59019;47.638;18.966;2022-09-03T09:57:43;29.41;42.87
71254;HTU21D;59019;47.638;18.966;2022-09-03T10:02:38;30.02;41.54
71254;HTU21D;59019;47.638;18.966;2022-09-03T10:05:39;30.22;41.13
71254;HTU21D;59019;47.638;18.966;2022-09-03T10:08:17;29.95;41.04
71254;HTU21D;59019;47.638;18.966;2022-09-03T10:10:46;30.02;40.94
71254;HTU21D;59019;47.638;18.966;2022-09-03T10:13:17;29.95;42.07
71254;HTU21D;59019;47.638;18.966;2022-09-03T10:16:09;30.04;40.57
71254;HTU21D;59019;47.638;18.966;2022-09-03T10:18:41;30.22;39.23
71254;HTU21D;59019;47.638;18.966;2022-09-03T10:27:00;30.42;40.54
71254;HTU21D;59019;47.638;18.966;2022-09-03T10:29:25;30.40;40.70
71254;HTU21D;59019;47.638;18.966;2022-09-03T10:32:02;30.82;40.43
71254;HTU21D;59019;47.638;18.966;2022-09-03T10:40:14;31.05;38.11
71254;HTU21D;59019;47.638;18.966;2022-09-03T10:42:45;30.99;37.78
71254;HTU21D;59019;47.638;18.966;2022-09-03T10:45:39;30.85;37.53
71254;HTU21D;59019;47.638;18.966;2022-09-03T10:50:54;31.14;37.40
71254;HTU21D;59019;47.638;18.966;2022-09-03T10:53:33;31.06;36.81
71254;HTU21D;59019;47.638;18.966;2022-09-03T10:56:26;31.39;37.36
71254;HTU21D;59019;47.638;18.966;2022-09-03T11:07:11;31.30;36.07
71254;HTU21D;59019;47.638;18.966;2022-09-03T11:09:43;30.75;36.82
71254;HTU21D;59019;47.638;18.966;2022-09-03T11:15:08;31.43;36.89
71254;HTU21D;59019;47.638;18.966;2022-09-03T11:22:28;32.24;34.28
71254;HTU21D;59019;47.638;18.966;2022-09-03T11:24:57;32.14;34.54
71254;HTU21D;59019;47.638;18.966;2022-09-03T11:30:11;31.99;33.83
71254;HTU21D;59019;47.638;18.966;2022-09-03T11:32:54;31.58;35.79
71254;HTU21D;59019;47.638;18.966;2022-09-03T11:38:25;31.80;35.99
71254;HTU21D;59019;47.638;18.966;2022-09-03T11:45:48;32.02;34.05
71254;HTU21D;59019;47.638;18.966;2022-09-03T11:48:39;32.05;34.15
71254;HTU21D;59019;47.638;18.966;2022-09-03T11:51:17;31.93;34.65
71254;HTU21D;59019;47.638;18.966;2022-09-03T11:53:58;31.93;34.64
71254;HTU21D;59019;47.638;18.966;2022-09-03T11:56:24;31.98;35.75
71254;HTU21D;59019;47.638;18.966;2022-09-03T12:01:46;31.29;36.79
71254;HTU21D;59019;47.638;18.966;2022-09-03T12:04:19;31.44;36.98
71254;HTU21D;59019;47.638;18.966;2022-09-03T12:18:36;30.75;37.31
71254;HTU21D;59019;47.638;18.966;2022-09-03T12:21:06;30.30;38.07
71254;HTU21D;59019;47.638;18.966;2022-09-03T12:23:43;29.81;38.72
71254;HTU21D;59019;47.638;18.966;2022-09-03T12:26:23;29.76;39.22
71254;HTU21D;59019;47.638;18.966;2022-09-03T12:28:55;30.36;38.49
71254;HTU21D;59019;47.638;18.966;2022-09-03T12:31:23;29.96;38.28
71254;HTU21D;59019;47.638;18.966;2022-09-03T12:33:58;30.05;38.72
71254;HTU21D;59019;47.638;18.966;2022-09-03T12:36:38;29.66;39.04
71254;HTU21D;59019;47.638;18.966;2022-09-03T12:41:37;28.65;40.89
71254;HTU21D;59019;47.638;18.966;2022-09-03T12:44:03;28.25;42.23
71254;HTU21D;59019;47.638;18.966;2022-09-03T12:46:31;27.86;42.68
71254;HTU21D;59019;47.638;18.966;2022-09-03T12:49:03;27.60;43.48
71254;HTU21D;59019;47.638;18.966;2022-09-03T12:51:39;27.50;43.99
71254;HTU21D;59019;47.638;18.966;2022-09-03T12:54:07;27.86;43.06
71254;HTU21D;59019;47.638;18.966;2022-09-03T12:56:39;28.37;43.26
71254;HTU21D;59019;47.638;18.966;2022-09-03T12:59:09;28.49;41.33
71254;HTU21D;59019;47.638;18.966;2022-09-03T13:01:48;28.23;42.15
71254;HTU21D;59019;47.638;18.966;2022-09-03T13:04:25;27.78;41.98
71254;HTU21D;59019;47.638;18.966;2022-09-03T13:07:20;27.35;42.77
71254;HTU21D;59019;47.638;18.966;2022-09-03T13:09:47;27.07;44.14
71254;HTU21D;59019;47.638;18.966;2022-09-03T13:12:31;26.95;43.65
71254;HTU21D;59019;47.638;18.966;2022-09-03T13:15:04;26.85;43.88
71254;HTU21D;59019;47.638;18.966;2022-09-03T13:20:32;26.54;45.63
71254;HTU21D;59019;47.638;18.966;2022-09-03T13:23:12;26.45;45.48
71254;HTU21D;59019;47.638;18.966;2022-09-03T13:31:32;25.94;46.29
71254;HTU21D;59019;47.638;18.966;2022-09-03T13:34:21;26.17;46.93
71254;HTU21D;59019;47.638;18.966;2022-09-03T13:37:02;26.33;45.80
71254;HTU21D;59019;47.638;18.966;2022-09-03T13:39:58;26.31;45.92
71254;HTU21D;59019;47.638;18.966;2022-09-03T13:42:42;26.37;45.73
71254;HTU21D;59019;47.638;18.966;2022-09-03T13:45:34;26.46;46.02
71254;HTU21D;59019;47.638;18.966;2022-09-03T14:08:11;26.13;46.64
71254;HTU21D;59019;47.638;18.966;2022-09-03T14:14:05;27.59;43.56
71254;HTU21D;59019;47.638;18.966;2022-09-03T14:16:58;28.25;42.20
71254;HTU21D;59019;47.638;18.966;2022-09-03T14:19:51;28.67;40.98
71254;HTU21D;59019;47.638;18.966;2022-09-03T14:25:02;28.97;40.69
71254;HTU21D;59019;47.638;18.966;2022-09-03T14:27:31;29.32;39.53
71254;HTU21D;59019;47.638;18.966;2022-09-03T14:55:30;29.12;39.69
71254;HTU21D;59019;47.638;18.966;2022-09-03T15:01:09;28.65;39.33
71254;HTU21D;59019;47.638;18.966;2022-09-03T15:04:14;28.67;39.75
71254;HTU21D;59019;47.638;18.966;2022-09-03T15:07:15;28.37;39.62
71254;HTU21D;59019;47.638;18.966;2022-09-03T15:10:14;28.62;40.04
71254;HTU21D;59019;47.638;18.966;2022-09-03T15:15:44;28.78;39.48
71254;HTU21D;59019;47.638;18.966;2022-09-03T15:21:18;29.15;39.81
71254;HTU21D;59019;47.638;18.966;2022-09-03T15:26:39;28.99;39.04
71254;HTU21D;59019;47.638;18.966;2022-09-03T15:37:33;28.30;40.65
71254;HTU21D;59019;47.638;18.966;2022-09-03T15:40:08;28.04;41.00
71254;HTU21D;59019;47.638;18.966;2022-09-03T15:42:35;27.89;40.98
71254;HTU21D;59019;47.638;18.966;2022-09-03T15:45:06;27.66;42.24
71254;HTU21D;59019;47.638;18.966;2022-09-03T15:55:33;26.80;42.76
71254;HTU21D;59019;47.638;18.966;2022-09-03T15:58:28;26.70;43.02
71254;HTU21D;59019;47.638;18.966;2022-09-03T16:00:59;26.64;42.63
71254;HTU21D;59019;47.638;18.966;2022-09-03T16:06:59;25.60;44.76
71254;HTU21D;59019;47.638;18.966;2022-09-03T16:22:51;23.47;50.65
71254;HTU21D;59019;47.638;18.966;2022-09-03T16:25:23;23.24;51.66
71254;HTU21D;59019;47.638;18.966;2022-09-03T16:42:01;22.14;57.21
71254;HTU21D;59019;47.638;18.966;2022-09-03T16:45:37;21.87;58.77
71254;HTU21D;59019;47.638;18.966;2022-09-03T16:47:50;21.63;59.80
71254;HTU21D;59019;47.638;18.966;2022-09-03T16:53:31;21.19;60.67
71254;HTU21D;59019;47.638;18.966;2022-09-03T16:59:10;20.71;62.10
71254;HTU21D;59019;47.638;18.966;2022-09-03T17:07:36;20.13;63.56
71254;HTU21D;59019;47.638;18.966;2022-09-03T17:10:17;19.97;64.08
71254;HTU21D;59019;47.638;18.966;2022-09-03T17:18:29;19.76;64.85
71254;HTU21D;59019;47.638;18.966;2022-09-03T17:29:14;19.03;67.18
71254;HTU21D;59019;47.638;18.966;2022-09-03T17:39:46;18.36;71.32
71254;HTU21D;59019;47.638;18.966;2022-09-03T17:42:27;18.27;72.24
71254;HTU21D;59019;47.638;18.966;2022-09-03T17:54:09;17.87;73.36
71254;HTU21D;59019;47.638;18.966;2022-09-03T18:13:04;17.21;75.60
71254;HTU21D;59019;47.638;18.966;2022-09-03T18:18:24;16.95;76.04
71254;HTU21D;59019;47.638;18.966;2022-09-03T18:20:53;16.88;76.43
71254;HTU21D;59019;47.638;18.966;2022-09-03T18:26:40;16.78;77.72
71254;HTU21D;59019;47.638;18.966;2022-09-03T18:29:49;16.69;77.89
71254;HTU21D;59019;47.638;18.966;2022-09-03T18:32:37;16.65;77.48
71254;HTU21D;59019;47.638;18.966;2022-09-03T18:35:22;16.60;77.63
71254;HTU21D;59019;47.638;18.966;2022-09-03T18:38:08;16.49;78.24
71254;HTU21D;59019;47.638;18.966;2022-09-03T18:44:44;16.33;79.27
71254;HTU21D;59019;47.638;18.966;2022-09-03T18:48:11;16.24;79.68
71254;HTU21D;59019;47.638;18.966;2022-09-03T18:56:56;16.06;80.07
71254;HTU21D;59019;47.638;18.966;2022-09-03T19:00:00;15.88;80.68
71254;HTU21D;59019;47.638;18.966;2022-09-03T19:15:13;15.56;81.65
71254;HTU21D;59019;47.638;18.966;2022-09-03T19:18:27;15.48;81.95
71254;HTU21D;59019;47.638;18.966;2022-09-03T19:21:32;15.31;82.39
71254;HTU21D;59019;47.638;18.966;2022-09-03T19:24:22;15.30;82.95
71254;HTU21D;59019;47.638;18.966;2022-09-03T19:30:23;15.31;83.10
71254;HTU21D;59019;47.638;18.966;2022-09-03T19:33:16;15.28;83.37
71254;HTU21D;59019;47.638;18.966;2022-09-03T19:39:38;15.12;83.65
71254;HTU21D;59019;47.638;18.966;2022-09-03T19:42:38;15.07;84.00
71254;HTU21D;59019;47.638;18.966;2022-09-03T19:51:11;15.08;84.24
71254;HTU21D;59019;47.638;18.966;2022-09-03T19:53:59;15.02;84.33
71254;HTU21D;59019;47.638;18.966;2022-09-03T19:56:46;14.98;84.30
71254;HTU21D;59019;47.638;18.966;2022-09-03T19:59:37;15.00;84.48
71254;HTU21D;59019;47.638;18.966;2022-09-03T20:02:23;15.01;84.58
71254;HTU21D;59019;47.638;18.966;2022-09-03T20:05:10;15.01;84.75
71254;HTU21D;59019;47.638;18.966;2022-09-03T20:07:56;14.89;84.98
71254;HTU21D;59019;47.638;18.966;2022-09-03T20:10:42;14.85;84.98
71254;HTU21D;59019;47.638;18.966;2022-09-03T20:13:17;14.82;85.22
71254;HTU21D;59019;47.638;18.966;2022-09-03T20:16:07;14.78;85.74
71254;HTU21D;59019;47.638;18.966;2022-09-03T20:35:19;14.64;86.32
71254;HTU21D;59019;47.638;18.966;2022-09-03T20:43:49;14.63;85.82
71254;HTU21D;59019;47.638;18.966;2022-09-03T20:51:40;14.52;86.51
71254;HTU21D;59019;47.638;18.966;2022-09-03T20:54:12;14.49;86.70
71254;HTU21D;59019;47.638;18.966;2022-09-03T21:05:08;14.32;87.24
71254;HTU21D;59019;47.638;18.966;2022-09-03T21:10:33;14.27;87.57
71254;HTU21D;59019;47.638;18.966;2022-09-03T21:23:38;14.19;88.00
71254;HTU21D;59019;47.638;18.966;2022-09-03T21:28:40;14.20;87.63
71254;HTU21D;59019;47.638;18.966;2022-09-03T21:33:52;14.10;88.17
71254;HTU21D;59019;47.638;18.966;2022-09-03T21:38:54;14.15;88.77
71254;HTU21D;59019;47.638;18.966;2022-09-03T21:41:35;14.04;88.84
71254;HTU21D;59019;47.638;18.966;2022-09-03T21:44:07;13.96;89.31
71254;HTU21D;59019;47.638;18.966;2022-09-03T21:46:40;13.97;89.07
71254;HTU21D;59019;47.638;18.966;2022-09-03T21:49:13;14.09;89.09
71254;HTU21D;59019;47.638;18.966;2022-09-03T21:51:49;14.08;89.02
71254;HTU21D;59019;47.638;18.966;2022-09-03T21:54:22;14.06;88.86
71254;HTU21D;59019;47.638;18.966;2022-09-03T21:57:38;14.05;88.93
71254;HTU21D;59019;47.638;18.966;2022-09-03T21:59:57;14.09;89.06
71254;HTU21D;59019;47.638;18.966;2022-09-03T22:02:31;14.09;88.66
71254;HTU21D;59019;47.638;18.966;2022-09-03T22:04:58;14.06;88.92
71254;HTU21D;59019;47.638;18.966;2022-09-03T22:10:33;13.98;88.99
71254;HTU21D;59019;47.638;18.966;2022-09-03T22:15:48;13.91;89.68
71254;HTU21D;59019;47.638;18.966;2022-09-03T22:18:27;13.91;89.52
71254;HTU21D;59019;47.638;18.966;2022-09-03T22:32:30;13.81;90.14
71254;HTU21D;59019;47.638;18.966;2022-09-03T22:43:44;13.68;90.82
71254;HTU21D;59019;47.638;18.966;2022-09-03T22:46:16;13.78;90.55
71254;HTU21D;59019;47.638;18.966;2022-09-03T22:49:08;13.77;90.44
71254;HTU21D;59019;47.638;18.966;2022-09-03T22:52:12;13.76;90.60
71254;HTU21D;59019;47.638;18.966;2022-09-03T22:57:19;13.70;90.69
71254;HTU21D;59019;47.638;18.966;2022-09-03T23:00:03;13.70;90.75
71254;HTU21D;59019;47.638;18.966;2022-09-03T23:02:30;13.76;90.50
71254;HTU21D;59019;47.638;18.966;2022-09-03T23:05:05;13.70;90.55